sensor_id;sensor_type;location;lat;lon;timestamp;pressure;altitude;pressure_sealevel;temperature
72236;BMP280;60146;52.498;13.462;2023-05-19T00:01:49;102456.44;;;12.06
72236;BMP280;60146;52.498;13.462;2023-05-19T00:04:16;102450.53;;;11.94
72236;BMP280;60146;52.498;13.462;2023-05-19T00:06:43;102467.03;;;11.90
72236;BMP280;60146;52.498;13.462;2023-05-19T00:09:12;102463.34;;;11.91
72236;BMP280;60146;52.498;13.462;2023-05-19T00:11:38;102463.69;;;11.94
72236;BMP280;60146;52.498;13.462;2023-05-19T00:14:06;102469.88;;;11.88
72236;BMP280;60146;52.498;13.462;2023-05-19T00:16:33;102468.22;;;11.82
72236;BMP280;60146;52.498;13.462;2023-05-19T00:18:59;102468.16;;;11.77
72236;BMP280;60146;52.498;13.462;2023-05-19T00:21:28;102462.06;;;11.72
72236;BMP280;60146;52.498;13.462;2023-05-19T00:23:54;102467.78;;;11.69
72236;BMP280;60146;52.498;13.462;2023-05-19T00:26:19;102464.69;;;11.72
72236;BMP280;60146;52.498;13.462;2023-05-19T00:28:46;102467.56;;;11.71
72236;BMP280;60146;52.498;13.462;2023-05-19T00:31:12;102461.97;;;11.67
72236;BMP280;60146;52.498;13.462;2023-05-19T00:33:41;102466.19;;;11.68
72236;BMP280;60146;52.498;13.462;2023-05-19T00:36:07;102466.19;;;11.68
72236;BMP280;60146;52.498;13.462;2023-05-19T00:38:36;102465.94;;;11.70
72236;BMP280;60146;52.498;13.462;2023-05-19T00:41:03;102463.19;;;11.60
72236;BMP280;60146;52.498;13.462;2023-05-19T00:43:28;102457.06;;;11.55
72236;BMP280;60146;52.498;13.462;2023-05-19T00:45:54;102462.63;;;11.58
72236;BMP280;60146;52.498;13.462;2023-05-19T00:48:20;102448.41;;;11.54
72236;BMP280;60146;52.498;13.462;2023-05-19T00:50:46;102455.41;;;11.49
72236;BMP280;60146;52.498;13.462;2023-05-19T00:53:13;102458.53;;;11.46
72236;BMP280;60146;52.498;13.462;2023-05-19T00:55:41;102461.16;;;11.46
72236;BMP280;60146;52.498;13.462;2023-05-19T00:58:09;102456.19;;;11.49
72236;BMP280;60146;52.498;13.462;2023-05-19T01:00:35;102461.44;;;11.49
72236;BMP280;60146;52.498;13.462;2023-05-19T01:03:06;102458.78;;;11.44
72236;BMP280;60146;52.498;13.462;2023-05-19T01:05:41;102464.03;;;11.44
72236;BMP280;60146;52.498;13.462;2023-05-19T01:08:09;102467.22;;;11.46
72236;BMP280;60146;52.498;13.462;2023-05-19T01:10:41;102469.72;;;11.41
72236;BMP280;60146;52.498;13.462;2023-05-19T01:13:07;102454.72;;;11.37
72236;BMP280;60146;52.498;13.462;2023-05-19T01:15:41;102459.16;;;11.37
72236;BMP280;60146;52.498;13.462;2023-05-19T01:18:17;102463.63;;;11.36
72236;BMP280;60146;52.498;13.462;2023-05-19T01:20:50;102452.56;;;11.34
72236;BMP280;60146;52.498;13.462;2023-05-19T01:23:45;102447.78;;;11.31
72236;BMP280;60146;52.498;13.462;2023-05-19T01:26:39;102453.97;;;11.41
72236;BMP280;60146;52.498;13.462;2023-05-19T01:31:41;102450.13;;;11.33
72236;BMP280;60146;52.498;13.462;2023-05-19T01:34:08;102456.22;;;11.33
72236;BMP280;60146;52.498;13.462;2023-05-19T01:36:34;102445.97;;;11.32
72236;BMP280;60146;52.498;13.462;2023-05-19T01:39:01;102454.31;;;11.29
72236;BMP280;60146;52.498;13.462;2023-05-19T01:41:27;102460.81;;;11.26
72236;BMP280;60146;52.498;13.462;2023-05-19T01:43:54;102464.75;;;11.24
72236;BMP280;60146;52.498;13.462;2023-05-19T01:46:21;102465.28;;;11.26
72236;BMP280;60146;52.498;13.462;2023-05-19T01:48:47;102461.63;;;11.27
72236;BMP280;60146;52.498;13.462;2023-05-19T01:51:13;102453.66;;;11.22
72236;BMP280;60146;52.498;13.462;2023-05-19T01:53:38;102453.91;;;11.20
72236;BMP280;60146;52.498;13.462;2023-05-19T01:56:04;102460.50;;;11.23
72236;BMP280;60146;52.498;13.462;2023-05-19T01:58:45;102467.78;;;11.16
72236;BMP280;60146;52.498;13.462;2023-05-19T02:01:33;102460.34;;;11.13
72236;BMP280;60146;52.498;13.462;2023-05-19T02:04:09;102457.72;;;11.13
72236;BMP280;60146;52.498;13.462;2023-05-19T02:12:18;102466.38;;;11.14
72236;BMP280;60146;52.498;13.462;2023-05-19T02:15:02;102464.00;;;11.12
72236;BMP280;60146;52.498;13.462;2023-05-19T02:17:29;102465.59;;;11.13
72236;BMP280;60146;52.498;13.462;2023-05-19T02:20:00;102467.41;;;11.13
72236;BMP280;60146;52.498;13.462;2023-05-19T02:22:26;102458.13;;;11.21
72236;BMP280;60146;52.498;13.462;2023-05-19T02:24:51;102466.19;;;11.15
72236;BMP280;60146;52.498;13.462;2023-05-19T02:27:16;102464.34;;;11.16
72236;BMP280;60146;52.498;13.462;2023-05-19T02:29:42;102456.88;;;11.08
72236;BMP280;60146;52.498;13.462;2023-05-19T02:32:09;102463.16;;;11.07
72236;BMP280;60146;52.498;13.462;2023-05-19T02:34:34;102456.06;;;11.07
72236;BMP280;60146;52.498;13.462;2023-05-19T02:37:00;102458.13;;;11.05
72236;BMP280;60146;52.498;13.462;2023-05-19T02:39:25;102456.31;;;11.06
72236;BMP280;60146;52.498;13.462;2023-05-19T02:41:50;102453.13;;;11.04
72236;BMP280;60146;52.498;13.462;2023-05-19T02:44:16;102450.72;;;11.02
72236;BMP280;60146;52.498;13.462;2023-05-19T02:46:41;102460.19;;;11.03
72236;BMP280;60146;52.498;13.462;2023-05-19T02:49:06;102448.63;;;11.04
72236;BMP280;60146;52.498;13.462;2023-05-19T02:51:32;102459.00;;;11.11
72236;BMP280;60146;52.498;13.462;2023-05-19T02:53:57;102452.03;;;11.16
72236;BMP280;60146;52.498;13.462;2023-05-19T02:56:22;102449.44;;;11.21
72236;BMP280;60146;52.498;13.462;2023-05-19T02:58:48;102450.47;;;11.20
72236;BMP280;60146;52.498;13.462;2023-05-19T03:01:13;102452.44;;;11.24
72236;BMP280;60146;52.498;13.462;2023-05-19T03:03:38;102450.66;;;11.30
72236;BMP280;60146;52.498;13.462;2023-05-19T03:06:04;102442.78;;;11.30
72236;BMP280;60146;52.498;13.462;2023-05-19T03:08:33;102438.31;;;11.30
72236;BMP280;60146;52.498;13.462;2023-05-19T03:10:58;102442.78;;;11.30
72236;BMP280;60146;52.498;13.462;2023-05-19T03:13:23;102438.09;;;11.32
72236;BMP280;60146;52.498;13.462;2023-05-19T03:15:49;102441.06;;;11.40
72236;BMP280;60146;52.498;13.462;2023-05-19T03:18:15;102438.97;;;11.37
72236;BMP280;60146;52.498;13.462;2023-05-19T03:20:40;102433.56;;;11.43
72236;BMP280;60146;52.498;13.462;2023-05-19T03:23:08;102435.81;;;11.40
72236;BMP280;60146;52.498;13.462;2023-05-19T03:25:34;102442.38;;;11.37
72236;BMP280;60146;52.498;13.462;2023-05-19T03:27:59;102446.53;;;11.34
72236;BMP280;60146;52.498;13.462;2023-05-19T03:30:25;102440.78;;;11.37
72236;BMP280;60146;52.498;13.462;2023-05-19T03:32:50;102443.69;;;11.40
72236;BMP280;60146;52.498;13.462;2023-05-19T03:35:16;102433.56;;;11.43
72236;BMP280;60146;52.498;13.462;2023-05-19T03:37:41;102445.94;;;11.48
72236;BMP280;60146;52.498;13.462;2023-05-19T03:40:07;102448.88;;;11.51
72236;BMP280;60146;52.498;13.462;2023-05-19T03:42:33;102450.31;;;11.58
72236;BMP280;60146;52.498;13.462;2023-05-19T03:44:58;102444.25;;;11.58
72236;BMP280;60146;52.498;13.462;2023-05-19T03:47:23;102438.50;;;11.61
72236;BMP280;60146;52.498;13.462;2023-05-19T03:49:49;102442.75;;;11.62
72236;BMP280;60146;52.498;13.462;2023-05-19T03:52:14;102428.31;;;11.64
72236;BMP280;60146;52.498;13.462;2023-05-19T03:54:41;102448.06;;;11.67
72236;BMP280;60146;52.498;13.462;2023-05-19T03:57:08;102449.63;;;11.68
72236;BMP280;60146;52.498;13.462;2023-05-19T03:59:34;102440.72;;;11.69
72236;BMP280;60146;52.498;13.462;2023-05-19T04:02:01;102444.06;;;11.80
72236;BMP280;60146;52.498;13.462;2023-05-19T04:04:26;102424.38;;;11.83
72236;BMP280;60146;52.498;13.462;2023-05-19T04:06:52;102438.59;;;11.87
72236;BMP280;60146;52.498;13.462;2023-05-19T04:09:17;102434.47;;;11.91
72236;BMP280;60146;52.498;13.462;2023-05-19T04:11:43;102445.56;;;11.97
72236;BMP280;60146;52.498;13.462;2023-05-19T04:14:09;102441.97;;;12.03
72236;BMP280;60146;52.498;13.462;2023-05-19T04:16:34;102438.34;;;12.09
72236;BMP280;60146;52.498;13.462;2023-05-19T04:19:00;102437.34;;;12.15
72236;BMP280;60146;52.498;13.462;2023-05-19T04:21:26;102435.84;;;12.19
72236;BMP280;60146;52.498;13.462;2023-05-19T04:23:51;102439.28;;;12.19
72236;BMP280;60146;52.498;13.462;2023-05-19T04:26:17;102430.81;;;12.17
72236;BMP280;60146;52.498;13.462;2023-05-19T04:28:43;102448.22;;;12.18
72236;BMP280;60146;52.498;13.462;2023-05-19T04:31:11;102443.59;;;12.30
72236;BMP280;60146;52.498;13.462;2023-05-19T04:33:38;102449.47;;;12.37
72236;BMP280;60146;52.498;13.462;2023-05-19T04:36:05;102445.22;;;12.36
72236;BMP280;60146;52.498;13.462;2023-05-19T04:38:37;102452.66;;;12.44
72236;BMP280;60146;52.498;13.462;2023-05-19T04:41:05;102457.63;;;12.40
72236;BMP280;60146;52.498;13.462;2023-05-19T04:43:34;102455.06;;;12.45
72236;BMP280;60146;52.498;13.462;2023-05-19T04:45:59;102448.69;;;12.41
72236;BMP280;60146;52.498;13.462;2023-05-19T04:48:26;102450.53;;;12.41
72236;BMP280;60146;52.498;13.462;2023-05-19T04:50:51;102458.53;;;12.51
72236;BMP280;60146;52.498;13.462;2023-05-19T04:53:17;102460.22;;;12.61
72236;BMP280;60146;52.498;13.462;2023-05-19T04:55:43;102457.56;;;12.61
72236;BMP280;60146;52.498;13.462;2023-05-19T04:58:08;102459.16;;;12.62
72236;BMP280;60146;52.498;13.462;2023-05-19T05:00:35;102452.44;;;12.71
72236;BMP280;60146;52.498;13.462;2023-05-19T05:03:00;102454.53;;;12.74
72236;BMP280;60146;52.498;13.462;2023-05-19T05:05:29;102445.13;;;12.78
72236;BMP280;60146;52.498;13.462;2023-05-19T05:07:55;102455.94;;;12.81
72236;BMP280;60146;52.498;13.462;2023-05-19T05:10:21;102454.16;;;12.92
72236;BMP280;60146;52.498;13.462;2023-05-19T05:12:47;102451.34;;;12.98
72236;BMP280;60146;52.498;13.462;2023-05-19T05:15:13;102454.81;;;13.03
72236;BMP280;60146;52.498;13.462;2023-05-19T05:17:38;102454.91;;;13.13
72236;BMP280;60146;52.498;13.462;2023-05-19T05:20:04;102460.97;;;13.18
72236;BMP280;60146;52.498;13.462;2023-05-19T05:22:31;102455.50;;;13.25
72236;BMP280;60146;52.498;13.462;2023-05-19T05:24:56;102454.19;;;13.27
72236;BMP280;60146;52.498;13.462;2023-05-19T05:27:22;102471.53;;;13.23
72236;BMP280;60146;52.498;13.462;2023-05-19T05:29:47;102458.97;;;13.35
72236;BMP280;60146;52.498;13.462;2023-05-19T05:32:12;102454.75;;;13.34
72236;BMP280;60146;52.498;13.462;2023-05-19T05:34:38;102448.19;;;13.37
72236;BMP280;60146;52.498;13.462;2023-05-19T05:37:05;102457.25;;;13.50
72236;BMP280;60146;52.498;13.462;2023-05-19T05:39:30;102459.81;;;13.40
72236;BMP280;60146;52.498;13.462;2023-05-19T05:41:55;102454.84;;;13.49
72236;BMP280;60146;52.498;13.462;2023-05-19T05:44:21;102459.16;;;13.64
72236;BMP280;60146;52.498;13.462;2023-05-19T05:46:46;102456.03;;;13.77
72236;BMP280;60146;52.498;13.462;2023-05-19T05:49:12;102452.16;;;13.89
72236;BMP280;60146;52.498;13.462;2023-05-19T05:51:38;102454.06;;;14.03
72236;BMP280;60146;52.498;13.462;2023-05-19T05:54:05;102459.13;;;14.19
72236;BMP280;60146;52.498;13.462;2023-05-19T05:56:31;102450.97;;;14.31
72236;BMP280;60146;52.498;13.462;2023-05-19T05:58:58;102458.63;;;14.42
72236;BMP280;60146;52.498;13.462;2023-05-19T06:01:23;102458.09;;;14.35
72236;BMP280;60146;52.498;13.462;2023-05-19T06:03:48;102453.38;;;14.37
72236;BMP280;60146;52.498;13.462;2023-05-19T06:06:14;102448.34;;;14.45
72236;BMP280;60146;52.498;13.462;2023-05-19T06:08:39;102449.66;;;14.53
72236;BMP280;60146;52.498;13.462;2023-05-19T06:11:05;102444.38;;;14.62
72236;BMP280;60146;52.498;13.462;2023-05-19T06:13:34;102454.44;;;14.80
72236;BMP280;60146;52.498;13.462;2023-05-19T06:16:00;102449.16;;;14.94
72236;BMP280;60146;52.498;13.462;2023-05-19T06:18:26;102446.00;;;15.02
72236;BMP280;60146;52.498;13.462;2023-05-19T06:20:51;102446.75;;;15.13
72236;BMP280;60146;52.498;13.462;2023-05-19T06:23:17;102446.47;;;15.29
72236;BMP280;60146;52.498;13.462;2023-05-19T06:25:42;102439.59;;;15.23
72236;BMP280;60146;52.498;13.462;2023-05-19T06:28:08;102434.81;;;15.30
72236;BMP280;60146;52.498;13.462;2023-05-19T06:30:33;102448.78;;;15.35
72236;BMP280;60146;52.498;13.462;2023-05-19T06:32:58;102446.63;;;15.47
72236;BMP280;60146;52.498;13.462;2023-05-19T06:35:24;102447.66;;;15.55
72236;BMP280;60146;52.498;13.462;2023-05-19T06:37:49;102449.19;;;15.71
72236;BMP280;60146;52.498;13.462;2023-05-19T06:40:15;102444.69;;;15.76
72236;BMP280;60146;52.498;13.462;2023-05-19T06:42:40;102440.38;;;15.90
72236;BMP280;60146;52.498;13.462;2023-05-19T06:45:06;102454.91;;;15.92
72236;BMP280;60146;52.498;13.462;2023-05-19T06:47:32;102448.53;;;15.98
72236;BMP280;60146;52.498;13.462;2023-05-19T06:49:57;102441.34;;;16.04
72236;BMP280;60146;52.498;13.462;2023-05-19T06:52:24;102442.91;;;16.10
72236;BMP280;60146;52.498;13.462;2023-05-19T06:54:49;102435.38;;;16.26
72236;BMP280;60146;52.498;13.462;2023-05-19T06:57:15;102439.03;;;16.35
72236;BMP280;60146;52.498;13.462;2023-05-19T06:59:40;102441.31;;;16.46
72236;BMP280;60146;52.498;13.462;2023-05-19T07:02:07;102442.09;;;16.51
72236;BMP280;60146;52.498;13.462;2023-05-19T07:04:32;102445.53;;;16.52
72236;BMP280;60146;52.498;13.462;2023-05-19T07:06:58;102441.47;;;16.59
72236;BMP280;60146;52.498;13.462;2023-05-19T07:09:23;102444.59;;;16.66
72236;BMP280;60146;52.498;13.462;2023-05-19T07:11:48;102445.91;;;16.68
72236;BMP280;60146;52.498;13.462;2023-05-19T07:14:14;102440.75;;;16.82
72236;BMP280;60146;52.498;13.462;2023-05-19T07:16:39;102445.59;;;16.98
72236;BMP280;60146;52.498;13.462;2023-05-19T07:19:05;102440.66;;;17.14
72236;BMP280;60146;52.498;13.462;2023-05-19T07:21:30;102443.69;;;17.26
72236;BMP280;60146;52.498;13.462;2023-05-19T07:23:55;102445.84;;;17.47
72236;BMP280;60146;52.498;13.462;2023-05-19T07:26:20;102440.72;;;17.73
72236;BMP280;60146;52.498;13.462;2023-05-19T07:28:46;102445.97;;;17.96
72236;BMP280;60146;52.498;13.462;2023-05-19T07:31:12;102441.78;;;18.26
72236;BMP280;60146;52.498;13.462;2023-05-19T07:33:37;102441.91;;;18.35
72236;BMP280;60146;52.498;13.462;2023-05-19T07:36:03;102443.63;;;18.57
72236;BMP280;60146;52.498;13.462;2023-05-19T07:38:29;102438.53;;;18.74
72236;BMP280;60146;52.498;13.462;2023-05-19T07:40:55;102437.28;;;18.71
72236;BMP280;60146;52.498;13.462;2023-05-19T07:43:20;102441.13;;;18.78
72236;BMP280;60146;52.498;13.462;2023-05-19T07:45:46;102431.72;;;18.55
72236;BMP280;60146;52.498;13.462;2023-05-19T07:48:11;102431.63;;;18.59
72236;BMP280;60146;52.498;13.462;2023-05-19T07:50:37;102429.97;;;18.77
72236;BMP280;60146;52.498;13.462;2023-05-19T07:53:02;102428.03;;;18.82
72236;BMP280;60146;52.498;13.462;2023-05-19T07:55:27;102430.72;;;19.08
72236;BMP280;60146;52.498;13.462;2023-05-19T07:57:53;102426.56;;;18.89
72236;BMP280;60146;52.498;13.462;2023-05-19T08:00:18;102430.41;;;18.83
72236;BMP280;60146;52.498;13.462;2023-05-19T08:02:44;102429.63;;;18.96
72236;BMP280;60146;52.498;13.462;2023-05-19T08:05:09;102427.63;;;19.14
72236;BMP280;60146;52.498;13.462;2023-05-19T08:07:35;102423.59;;;19.30
72236;BMP280;60146;52.498;13.462;2023-05-19T08:10:01;102434.25;;;19.30
72236;BMP280;60146;52.498;13.462;2023-05-19T08:12:27;102421.41;;;19.32
72236;BMP280;60146;52.498;13.462;2023-05-19T08:14:52;102432.47;;;19.26
72236;BMP280;60146;52.498;13.462;2023-05-19T08:17:17;102436.63;;;19.05
72236;BMP280;60146;52.498;13.462;2023-05-19T08:19:43;102418.59;;;18.89
72236;BMP280;60146;52.498;13.462;2023-05-19T08:22:08;102434.16;;;19.22
72236;BMP280;60146;52.498;13.462;2023-05-19T08:24:34;102423.69;;;19.38
72236;BMP280;60146;52.498;13.462;2023-05-19T08:26:59;102424.91;;;19.89
72236;BMP280;60146;52.498;13.462;2023-05-19T08:29:24;102441.25;;;19.95
72236;BMP280;60146;52.498;13.462;2023-05-19T08:31:50;102422.38;;;20.05
72236;BMP280;60146;52.498;13.462;2023-05-19T08:34:17;102426.06;;;20.17
72236;BMP280;60146;52.498;13.462;2023-05-19T08:36:43;102428.34;;;20.32
72236;BMP280;60146;52.498;13.462;2023-05-19T08:39:09;102428.22;;;21.21
72236;BMP280;60146;52.498;13.462;2023-05-19T08:41:35;102428.06;;;22.17
72236;BMP280;60146;52.498;13.462;2023-05-19T08:44:00;102425.00;;;23.00
72236;BMP280;60146;52.498;13.462;2023-05-19T08:46:27;102417.88;;;22.83
72236;BMP280;60146;52.498;13.462;2023-05-19T08:48:57;102415.66;;;22.85
72236;BMP280;60146;52.498;13.462;2023-05-19T08:52:26;102421.00;;;22.85
72236;BMP280;60146;52.498;13.462;2023-05-19T08:54:38;102422.38;;;23.71
72236;BMP280;60146;52.498;13.462;2023-05-19T08:57:05;102413.75;;;23.97
72236;BMP280;60146;52.498;13.462;2023-05-19T08:59:32;102409.78;;;24.27
72236;BMP280;60146;52.498;13.462;2023-05-19T09:01:58;102404.63;;;24.45
72236;BMP280;60146;52.498;13.462;2023-05-19T09:04:26;102406.13;;;25.31
72236;BMP280;60146;52.498;13.462;2023-05-19T09:06:55;102399.91;;;25.99
72236;BMP280;60146;52.498;13.462;2023-05-19T09:09:23;102396.78;;;26.27
72236;BMP280;60146;52.498;13.462;2023-05-19T09:11:48;102387.78;;;26.54
72236;BMP280;60146;52.498;13.462;2023-05-19T09:14:14;102379.56;;;25.83
72236;BMP280;60146;52.498;13.462;2023-05-19T09:16:40;102382.00;;;26.52
72236;BMP280;60146;52.498;13.462;2023-05-19T09:19:12;102372.50;;;27.13
72236;BMP280;60146;52.498;13.462;2023-05-19T09:21:39;102374.66;;;26.34
72236;BMP280;60146;52.498;13.462;2023-05-19T09:24:09;102371.63;;;27.06
72236;BMP280;60146;52.498;13.462;2023-05-19T09:26:38;102370.47;;;27.91
72236;BMP280;60146;52.498;13.462;2023-05-19T09:29:17;102363.41;;;28.62
72236;BMP280;60146;52.498;13.462;2023-05-19T09:31:59;102370.44;;;28.70
72236;BMP280;60146;52.498;13.462;2023-05-19T09:34:33;102352.78;;;28.76
72236;BMP280;60146;52.498;13.462;2023-05-19T09:37:02;102357.59;;;27.15
72236;BMP280;60146;52.498;13.462;2023-05-19T09:39:33;102367.00;;;26.36
72236;BMP280;60146;52.498;13.462;2023-05-19T09:42:06;102373.41;;;25.14
72236;BMP280;60146;52.498;13.462;2023-05-19T09:44:33;102362.69;;;25.56
72236;BMP280;60146;52.498;13.462;2023-05-19T09:47:02;102373.81;;;25.54
72236;BMP280;60146;52.498;13.462;2023-05-19T09:49:32;102373.06;;;25.16
72236;BMP280;60146;52.498;13.462;2023-05-19T09:52:05;102367.59;;;24.74
72236;BMP280;60146;52.498;13.462;2023-05-19T09:54:33;102363.94;;;26.04
72236;BMP280;60146;52.498;13.462;2023-05-19T09:57:03;102362.56;;;27.57
72236;BMP280;60146;52.498;13.462;2023-05-19T09:59:29;102357.16;;;28.01
72236;BMP280;60146;52.498;13.462;2023-05-19T10:02:01;102356.81;;;28.88
72236;BMP280;60146;52.498;13.462;2023-05-19T10:04:28;102349.16;;;28.94
72236;BMP280;60146;52.498;13.462;2023-05-19T10:06:57;102348.59;;;29.59
72236;BMP280;60146;52.498;13.462;2023-05-19T10:09:33;102336.63;;;29.60
72236;BMP280;60146;52.498;13.462;2023-05-19T10:12:06;102334.50;;;28.98
72236;BMP280;60146;52.498;13.462;2023-05-19T10:14:41;102339.81;;;28.27
72236;BMP280;60146;52.498;13.462;2023-05-19T10:17:13;102320.94;;;28.27
72236;BMP280;60146;52.498;13.462;2023-05-19T10:19:42;102331.00;;;28.62
72236;BMP280;60146;52.498;13.462;2023-05-19T10:22:09;102339.91;;;29.37
72236;BMP280;60146;52.498;13.462;2023-05-19T10:24:40;102335.19;;;28.28
72236;BMP280;60146;52.498;13.462;2023-05-19T10:27:10;102347.84;;;27.11
72236;BMP280;60146;52.498;13.462;2023-05-19T10:29:46;102336.50;;;26.47
72236;BMP280;60146;52.498;13.462;2023-05-19T10:32:18;102331.06;;;25.80
72236;BMP280;60146;52.498;13.462;2023-05-19T10:41:46;102329.66;;;26.01
72236;BMP280;60146;52.498;13.462;2023-05-19T10:44:39;102325.91;;;25.90
72236;BMP280;60146;52.498;13.462;2023-05-19T10:47:06;102332.09;;;25.45
72236;BMP280;60146;52.498;13.462;2023-05-19T10:49:35;102334.59;;;25.53
72236;BMP280;60146;52.498;13.462;2023-05-19T10:52:01;102321.56;;;25.40
72236;BMP280;60146;52.498;13.462;2023-05-19T10:54:40;102317.41;;;25.28
72236;BMP280;60146;52.498;13.462;2023-05-19T10:57:07;102329.03;;;25.05
72236;BMP280;60146;52.498;13.462;2023-05-19T10:59:35;102322.34;;;25.26
72236;BMP280;60146;52.498;13.462;2023-05-19T11:02:05;102315.47;;;25.85
72236;BMP280;60146;52.498;13.462;2023-05-19T11:04:49;102317.59;;;25.50
72236;BMP280;60146;52.498;13.462;2023-05-19T11:07:19;102304.09;;;25.76
72236;BMP280;60146;52.498;13.462;2023-05-19T11:09:51;102309.56;;;26.62
72236;BMP280;60146;52.498;13.462;2023-05-19T11:12:21;102309.59;;;26.47
72236;BMP280;60146;52.498;13.462;2023-05-19T11:14:47;102308.19;;;26.19
72236;BMP280;60146;52.498;13.462;2023-05-19T11:17:13;102318.50;;;26.32
72236;BMP280;60146;52.498;13.462;2023-05-19T11:19:51;102315.22;;;26.23
72236;BMP280;60146;52.498;13.462;2023-05-19T11:22:17;102316.63;;;26.88
72236;BMP280;60146;52.498;13.462;2023-05-19T11:24:46;102305.28;;;26.42
72236;BMP280;60146;52.498;13.462;2023-05-19T11:29:46;102302.56;;;27.38
72236;BMP280;60146;52.498;13.462;2023-05-19T11:32:12;102302.97;;;27.40
72236;BMP280;60146;52.498;13.462;2023-05-19T11:34:38;102311.94;;;26.85
72236;BMP280;60146;52.498;13.462;2023-05-19T11:37:05;102290.66;;;26.99
72236;BMP280;60146;52.498;13.462;2023-05-19T11:39:31;102292.44;;;26.03
72236;BMP280;60146;52.498;13.462;2023-05-19T11:41:57;102290.53;;;25.28
72236;BMP280;60146;52.498;13.462;2023-05-19T11:44:22;102288.53;;;25.10
72236;BMP280;60146;52.498;13.462;2023-05-19T11:46:47;102293.97;;;25.85
72236;BMP280;60146;52.498;13.462;2023-05-19T11:49:14;102287.00;;;27.07
72236;BMP280;60146;52.498;13.462;2023-05-19T11:51:42;102278.66;;;28.09
72236;BMP280;60146;52.498;13.462;2023-05-19T11:54:09;102278.22;;;29.49
72236;BMP280;60146;52.498;13.462;2023-05-19T11:56:39;102287.09;;;29.50
72236;BMP280;60146;52.498;13.462;2023-05-19T11:59:04;102280.22;;;28.42
72236;BMP280;60146;52.498;13.462;2023-05-19T12:01:30;102280.91;;;28.68
72236;BMP280;60146;52.498;13.462;2023-05-19T12:03:56;102291.16;;;27.95
72236;BMP280;60146;52.498;13.462;2023-05-19T12:06:21;102283.88;;;27.70
72236;BMP280;60146;52.498;13.462;2023-05-19T12:08:50;102294.88;;;26.41
72236;BMP280;60146;52.498;13.462;2023-05-19T12:11:15;102285.00;;;26.85
72236;BMP280;60146;52.498;13.462;2023-05-19T12:13:41;102285.66;;;27.19
72236;BMP280;60146;52.498;13.462;2023-05-19T12:16:07;102272.25;;;29.27
72236;BMP280;60146;52.498;13.462;2023-05-19T12:18:36;102272.94;;;30.59
72236;BMP280;60146;52.498;13.462;2023-05-19T12:21:01;102278.75;;;30.68
72236;BMP280;60146;52.498;13.462;2023-05-19T12:23:27;102273.69;;;31.65
72236;BMP280;60146;52.498;13.462;2023-05-19T12:25:57;102266.78;;;31.10
72236;BMP280;60146;52.498;13.462;2023-05-19T12:28:23;102270.56;;;31.63
72236;BMP280;60146;52.498;13.462;2023-05-19T12:30:49;102272.44;;;31.93
72236;BMP280;60146;52.498;13.462;2023-05-19T12:33:17;102276.75;;;31.71
72236;BMP280;60146;52.498;13.462;2023-05-19T12:35:44;102279.16;;;30.87
72236;BMP280;60146;52.498;13.462;2023-05-19T12:38:10;102272.84;;;30.39
72236;BMP280;60146;52.498;13.462;2023-05-19T12:40:38;102273.75;;;29.24
72236;BMP280;60146;52.498;13.462;2023-05-19T12:43:03;102285.47;;;27.31
72236;BMP280;60146;52.498;13.462;2023-05-19T12:45:33;102276.22;;;27.07
72236;BMP280;60146;52.498;13.462;2023-05-19T12:48:02;102271.81;;;28.83
72236;BMP280;60146;52.498;13.462;2023-05-19T12:50:30;102257.22;;;29.88
72236;BMP280;60146;52.498;13.462;2023-05-19T12:52:56;102258.63;;;30.69
72236;BMP280;60146;52.498;13.462;2023-05-19T12:55:24;102255.78;;;31.81
72236;BMP280;60146;52.498;13.462;2023-05-19T12:57:51;102257.75;;;31.67
72236;BMP280;60146;52.498;13.462;2023-05-19T13:00:22;102263.28;;;31.37
72236;BMP280;60146;52.498;13.462;2023-05-19T13:03:04;102249.72;;;32.27
72236;BMP280;60146;52.498;13.462;2023-05-19T13:05:31;102254.50;;;32.69
72236;BMP280;60146;52.498;13.462;2023-05-19T13:08:04;102247.91;;;32.14
72236;BMP280;60146;52.498;13.462;2023-05-19T13:10:30;102237.25;;;32.86
72236;BMP280;60146;52.498;13.462;2023-05-19T13:12:56;102250.75;;;31.87
72236;BMP280;60146;52.498;13.462;2023-05-19T13:15:26;102252.81;;;30.70
72236;BMP280;60146;52.498;13.462;2023-05-19T13:17:55;102241.03;;;31.86
72236;BMP280;60146;52.498;13.462;2023-05-19T13:20:21;102252.84;;;30.81
72236;BMP280;60146;52.498;13.462;2023-05-19T13:22:47;102247.41;;;30.87
72236;BMP280;60146;52.498;13.462;2023-05-19T13:25:13;102254.38;;;30.65
72236;BMP280;60146;52.498;13.462;2023-05-19T13:27:39;102250.22;;;28.86
72236;BMP280;60146;52.498;13.462;2023-05-19T13:30:05;102251.59;;;28.70
72236;BMP280;60146;52.498;13.462;2023-05-19T13:32:31;102251.56;;;27.77
72236;BMP280;60146;52.498;13.462;2023-05-19T13:34:56;102250.38;;;27.24
72236;BMP280;60146;52.498;13.462;2023-05-19T13:37:23;102250.63;;;27.41
72236;BMP280;60146;52.498;13.462;2023-05-19T13:39:49;102244.31;;;25.49
72236;BMP280;60146;52.498;13.462;2023-05-19T13:42:15;102255.66;;;25.73
72236;BMP280;60146;52.498;13.462;2023-05-19T13:44:42;102249.75;;;25.68
72236;BMP280;60146;52.498;13.462;2023-05-19T13:47:07;102249.41;;;24.82
72236;BMP280;60146;52.498;13.462;2023-05-19T13:49:32;102257.66;;;24.77
72236;BMP280;60146;52.498;13.462;2023-05-19T13:51:58;102248.81;;;24.62
72236;BMP280;60146;52.498;13.462;2023-05-19T13:54:24;102256.63;;;24.55
72236;BMP280;60146;52.498;13.462;2023-05-19T13:56:49;102249.31;;;24.28
72236;BMP280;60146;52.498;13.462;2023-05-19T13:59:15;102254.25;;;24.15
72236;BMP280;60146;52.498;13.462;2023-05-19T14:01:41;102260.25;;;24.35
72236;BMP280;60146;52.498;13.462;2023-05-19T14:04:07;102248.91;;;24.92